Time;durP1;ratioP1;P1;durP2;ratioP2;P2;SDS_P1;SDS_P2;PMS_P1;PMS_P2;Temp;Humidity;BMP_temperature;BMP_pressure;BME280_temperature;BME280_humidity;BME280_pressure;Samples;Min_cycle;Max_cycle;Signal;HPM_P1;HPM_P2
2022/08/17 00:01:46;;;;;;;8.90;6.07;;;;;;;;;;5023144;28;20409;-75
2022/08/17 00:04:11;;;;;;;6.47;5.40;;;;;;;;;;5022920;28;20033;-73
2022/08/17 00:06:37;;;;;;;8.75;5.68;;;;;;;;;;5022006;28;20035;-73
2022/08/17 00:09:03;;;;;;;7.75;5.55;;;;;;;;;;5023681;28;20056;-72
2022/08/17 00:11:30;;;;;;;5.63;4.90;;;;;;;;;;5023980;28;20432;-73
2022/08/17 00:14:09;;;;;;;8.55;5.55;;;;;;;;;;5023473;28;20095;-76
2022/08/17 00:16:36;;;;;;;9.35;5.70;;;;;;;;;;5024526;28;20052;-72
2022/08/17 00:19:04;;;;;;;5.85;5.05;;;;;;;;;;5023250;28;20043;-72
2022/08/17 00:21:30;;;;;;;6.25;5.60;;;;;;;;;;5023632;28;20033;-74
2022/08/17 00:23:55;;;;;;;6.45;5.30;;;;;;;;;;5023712;28;20108;-73
2022/08/17 00:26:21;;;;;;;6.72;5.18;;;;;;;;;;5023769;28;20043;-72
2022/08/17 00:28:47;;;;;;;6.35;5.00;;;;;;;;;;5022434;28;20028;-72
2022/08/17 00:31:12;;;;;;;5.43;4.80;;;;;;;;;;5024153;28;20336;-72
2022/08/17 00:33:39;;;;;;;6.32;5.25;;;;;;;;;;5024210;28;20029;-72
2022/08/17 00:36:06;;;;;;;5.35;4.28;;;;;;;;;;5003551;28;20034;-74
2022/08/17 00:38:32;;;;;;;7.57;4.97;;;;;;;;;;5023877;28;20125;-72
2022/08/17 00:40:59;;;;;;;6.55;5.18;;;;;;;;;;5021793;28;20159;-72
2022/08/17 00:43:32;;;;;;;20.67;5.28;;;;;;;;;;5025706;28;20267;-75
2022/08/17 00:45:59;;;;;;;5.88;5.13;;;;;;;;;;5021612;28;20029;-73
2022/08/17 00:48:24;;;;;;;6.32;4.93;;;;;;;;;;5021289;28;20021;-74
2022/08/17 00:51:10;;;;;;;8.63;4.72;;;;;;;;;;5024430;28;20120;-73
2022/08/17 00:53:38;;;;;;;5.45;4.80;;;;;;;;;;5023813;28;20293;-73
2022/08/17 00:56:04;;;;;;;6.20;5.25;;;;;;;;;;5022258;28;20029;-74
2022/08/17 00:58:31;;;;;;;5.88;4.50;;;;;;;;;;5022561;28;20025;-75
2022/08/17 01:01:00;;;;;;;5.63;4.97;;;;;;;;;;5022105;28;20155;-72
2022/08/17 01:03:26;;;;;;;6.22;4.78;;;;;;;;;;5021988;28;20040;-72
2022/08/17 01:05:53;;;;;;;5.93;5.13;;;;;;;;;;5022733;28;20035;-72
2022/08/17 01:08:23;;;;;;;5.93;5.32;;;;;;;;;;5022666;28;20057;-76
2022/08/17 01:10:52;;;;;;;6.75;5.25;;;;;;;;;;5022312;28;20140;-72
2022/08/17 01:13:18;;;;;;;7.35;5.72;;;;;;;;;;5024089;28;20495;-73
2022/08/17 01:15:49;;;;;;;6.43;5.82;;;;;;;;;;5023666;28;20033;-72
2022/08/17 01:18:15;;;;;;;7.72;5.15;;;;;;;;;;5022498;28;20112;-72
2022/08/17 01:20:47;;;;;;;5.65;5.03;;;;;;;;;;5021518;28;20030;-72
2022/08/17 01:23:12;;;;;;;9.43;5.20;;;;;;;;;;5022034;28;21447;-72
2022/08/17 01:25:38;;;;;;;6.30;5.05;;;;;;;;;;5023234;28;20022;-74
2022/08/17 01:28:04;;;;;;;5.28;4.78;;;;;;;;;;5021402;28;20527;-72
2022/08/17 01:30:30;;;;;;;6.13;5.53;;;;;;;;;;5024237;28;20147;-72
2022/08/17 01:32:55;;;;;;;6.82;5.35;;;;;;;;;;5021654;28;20112;-73
2022/08/17 01:35:20;;;;;;;5.90;5.30;;;;;;;;;;5022106;28;20119;-72
2022/08/17 01:37:46;;;;;;;6.13;5.22;;;;;;;;;;5020877;28;20115;-72
2022/08/17 01:40:21;;;;;;;5.20;4.47;;;;;;;;;;5022877;28;20425;-73
2022/08/17 01:42:47;;;;;;;6.80;4.75;;;;;;;;;;5021894;28;20060;-73
2022/08/17 01:45:18;;;;;;;6.88;4.82;;;;;;;;;;5023143;28;20412;-73
2022/08/17 01:47:44;;;;;;;4.38;4.03;;;;;;;;;;5023553;28;20321;-72
2022/08/17 01:50:10;;;;;;;4.65;4.25;;;;;;;;;;5026589;28;20459;-74
2022/08/17 01:52:36;;;;;;;7.18;4.95;;;;;;;;;;5027861;28;20022;-74
2022/08/17 01:55:03;;;;;;;6.40;4.60;;;;;;;;;;5025537;28;20036;-72
2022/08/17 01:57:29;;;;;;;5.82;4.75;;;;;;;;;;5025530;28;20071;-75
2022/08/17 01:59:54;;;;;;;6.28;5.32;;;;;;;;;;5010613;28;20068;-72
2022/08/17 02:02:20;;;;;;;6.20;4.00;;;;;;;;;;5026669;28;20036;-77
2022/08/17 02:04:45;;;;;;;5.85;4.72;;;;;;;;;;5026501;28;20040;-72
2022/08/17 02:07:10;;;;;;;6.22;5.63;;;;;;;;;;5025457;28;20477;-72
2022/08/17 02:09:36;;;;;;;7.10;5.80;;;;;;;;;;5026706;28;20451;-72
2022/08/17 02:12:02;;;;;;;6.07;5.25;;;;;;;;;;5024685;28;20329;-73
2022/08/17 02:14:28;;;;;;;7.20;5.63;;;;;;;;;;5025688;28;20157;-72
2022/08/17 02:16:53;;;;;;;6.07;5.47;;;;;;;;;;5025163;28;20416;-73
2022/08/17 02:19:19;;;;;;;7.38;5.13;;;;;;;;;;5024943;28;20037;-72
2022/08/17 02:21:45;;;;;;;5.95;5.35;;;;;;;;;;5025384;28;20147;-73
2022/08/17 02:24:13;;;;;;;5.93;5.30;;;;;;;;;;5024871;28;20044;-76
2022/08/17 02:26:39;;;;;;;6.07;5.22;;;;;;;;;;5026349;28;20025;-76
2022/08/17 02:29:04;;;;;;;7.90;4.88;;;;;;;;;;5025425;28;20026;-73
2022/08/17 02:31:30;;;;;;;6.40;5.35;;;;;;;;;;5026424;28;20033;-72
2022/08/17 02:33:56;;;;;;;6.25;5.50;;;;;;;;;;5025598;28;20846;-73
2022/08/17 02:36:21;;;;;;;5.88;5.28;;;;;;;;;;5025198;28;20029;-72
2022/08/17 02:38:46;;;;;;;6.35;5.50;;;;;;;;;;5024681;28;20048;-73
2022/08/17 02:41:12;;;;;;;5.30;4.80;;;;;;;;;;5024506;28;20057;-73
2022/08/17 02:43:37;;;;;;;5.82;5.15;;;;;;;;;;5026096;28;20029;-72
2022/08/17 02:46:03;;;;;;;6.55;4.75;;;;;;;;;;5023741;28;20055;-75
2022/08/17 02:48:28;;;;;;;12.45;5.32;;;;;;;;;;5026208;28;20090;-73
2022/08/17 02:50:53;;;;;;;6.75;5.03;;;;;;;;;;5023299;28;20150;-72
2022/08/17 02:53:19;;;;;;;5.80;4.80;;;;;;;;;;5024558;28;20040;-76
2022/08/17 02:55:44;;;;;;;6.60;5.05;;;;;;;;;;5027325;28;20029;-73
2022/08/17 02:58:10;;;;;;;5.30;4.80;;;;;;;;;;5024819;28;20457;-73
2022/08/17 03:00:39;;;;;;;7.50;5.40;;;;;;;;;;5027340;28;20518;-72
2022/08/17 03:03:05;;;;;;;7.25;5.20;;;;;;;;;;5027086;28;20040;-74
2022/08/17 03:05:32;;;;;;;7.78;5.53;;;;;;;;;;5025122;28;20033;-73
2022/08/17 03:07:57;;;;;;;8.75;6.25;;;;;;;;;;5027462;28;20033;-72
2022/08/17 03:10:23;;;;;;;8.45;5.72;;;;;;;;;;5025703;28;20102;-73
2022/08/17 03:12:49;;;;;;;6.65;5.65;;;;;;;;;;5024041;28;20026;-72
2022/08/17 03:15:16;;;;;;;7.22;5.32;;;;;;;;;;5025077;28;20100;-73
2022/08/17 03:17:42;;;;;;;6.68;4.55;;;;;;;;;;5023732;28;20508;-73
2022/08/17 03:20:08;;;;;;;7.95;4.97;;;;;;;;;;5024834;28;20025;-72
2022/08/17 03:22:37;;;;;;;6.18;5.05;;;;;;;;;;5024959;28;20021;-73
2022/08/17 03:25:03;;;;;;;6.15;5.55;;;;;;;;;;5024567;28;20072;-73
2022/08/17 03:27:28;;;;;;;11.60;6.07;;;;;;;;;;5026270;28;20061;-72
2022/08/17 03:29:53;;;;;;;5.95;5.43;;;;;;;;;;5024321;28;20022;-72
2022/08/17 03:32:19;;;;;;;6.03;5.45;;;;;;;;;;5025426;28;20063;-74
2022/08/17 03:34:44;;;;;;;6.13;5.53;;;;;;;;;;5024846;28;20095;-72
2022/08/17 03:37:10;;;;;;;6.13;5.53;;;;;;;;;;5024469;28;20204;-75
2022/08/17 03:39:35;;;;;;;7.20;5.90;;;;;;;;;;5024680;28;20025;-72
2022/08/17 03:42:02;;;;;;;8.40;4.97;;;;;;;;;;5022796;28;20392;-73
2022/08/17 03:44:28;;;;;;;7.20;5.80;;;;;;;;;;5025235;28;20108;-72
2022/08/17 03:57:49;;;;;;;6.72;6.13;;;;;;;;;;5024477;28;20075;-73
2022/08/17 04:00:14;;;;;;;8.05;6.40;;;;;;;;;;5024195;28;20061;-72
2022/08/17 04:02:41;;;;;;;7.05;5.55;;;;;;;;;;5024357;28;20044;-74
2022/08/17 04:05:06;;;;;;;10.25;5.93;;;;;;;;;;5026414;28;20037;-73
2022/08/17 04:07:32;;;;;;;7.63;5.45;;;;;;;;;;5025668;28;20033;-76
2022/08/17 04:09:58;;;;;;;5.93;5.32;;;;;;;;;;5022422;28;20079;-77
2022/08/17 04:12:24;;;;;;;6.13;5.30;;;;;;;;;;5021884;28;21010;-72
2022/08/17 04:14:50;;;;;;;6.05;5.47;;;;;;;;;;5026299;28;20037;-73
2022/08/17 04:17:15;;;;;;;7.00;4.70;;;;;;;;;;5023068;28;20510;-73
2022/08/17 04:19:40;;;;;;;8.93;5.40;;;;;;;;;;5022048;28;20061;-72
2022/08/17 04:22:06;;;;;;;6.28;5.40;;;;;;;;;;5023619;28;20026;-75
2022/08/17 04:24:31;;;;;;;7.13;5.72;;;;;;;;;;5024487;28;20086;-73
2022/08/17 04:26:57;;;;;;;6.55;5.28;;;;;;;;;;5022138;28;20025;-74
2022/08/17 04:29:24;;;;;;;8.15;5.65;;;;;;;;;;5023630;28;20444;-73
2022/08/17 04:31:50;;;;;;;6.40;5.53;;;;;;;;;;5023409;28;20033;-74
2022/08/17 04:34:16;;;;;;;6.93;5.30;;;;;;;;;;5022730;28;20457;-75
2022/08/17 04:36:41;;;;;;;6.15;5.55;;;;;;;;;;5024240;28;20034;-74
2022/08/17 04:39:06;;;;;;;11.88;10.60;;;;;;;;;;5024462;28;20022;-73
2022/08/17 04:44:16;;;;;;;6.55;5.28;;;;;;;;;;5022627;28;20043;-71
2022/08/17 04:46:42;;;;;;;7.32;5.57;;;;;;;;;;5022263;28;20363;-71
2022/08/17 04:49:09;;;;;;;8.43;6.00;;;;;;;;;;5022835;28;20044;-72
2022/08/17 04:51:38;;;;;;;10.00;6.57;;;;;;;;;;5025225;28;20333;-71
2022/08/17 04:54:05;;;;;;;9.27;5.82;;;;;;;;;;5024298;28;20386;-73
2022/08/17 04:56:31;;;;;;;9.65;6.28;;;;;;;;;;5024087;28;20039;-71
2022/08/17 04:59:01;;;;;;;8.05;5.90;;;;;;;;;;5024615;28;20025;-72
2022/08/17 05:01:29;;;;;;;6.30;5.30;;;;;;;;;;5021589;28;20028;-73
2022/08/17 05:03:57;;;;;;;9.30;5.30;;;;;;;;;;5023946;28;20033;-72
2022/08/17 05:06:23;;;;;;;6.15;5.63;;;;;;;;;;5020687;28;20456;-75
2022/08/17 05:08:48;;;;;;;6.93;5.30;;;;;;;;;;5021308;28;20029;-73
2022/08/17 05:11:14;;;;;;;6.40;5.63;;;;;;;;;;5021573;28;20096;-71
2022/08/17 05:13:40;;;;;;;6.22;5.57;;;;;;;;;;5021522;28;20065;-74
2022/08/17 05:16:05;;;;;;;6.82;5.57;;;;;;;;;;5023373;28;20107;-72
2022/08/17 05:18:31;;;;;;;5.95;5.35;;;;;;;;;;5022487;28;20044;-74
2022/08/17 05:20:56;;;;;;;11.48;5.28;;;;;;;;;;5021860;28;20033;-73
2022/08/17 05:23:23;;;;;;;8.73;5.10;;;;;;;;;;5027860;28;20113;-73
2022/08/17 05:25:49;;;;;;;7.57;5.70;;;;;;;;;;5026230;28;20041;-72
2022/08/17 05:28:15;;;;;;;5.82;5.22;;;;;;;;;;5025770;28;20330;-72
2022/08/17 05:30:41;;;;;;;6.45;5.72;;;;;;;;;;5026023;28;20032;-76
2022/08/17 05:33:07;;;;;;;5.85;5.25;;;;;;;;;;5027121;28;20057;-73
2022/08/17 05:35:34;;;;;;;6.50;5.22;;;;;;;;;;5025769;28;20075;-72
2022/08/17 05:37:59;;;;;;;9.27;5.63;;;;;;;;;;5028350;28;20066;-73
2022/08/17 05:40:25;;;;;;;9.70;5.72;;;;;;;;;;5027715;28;20029;-74
2022/08/17 05:42:51;;;;;;;7.07;5.57;;;;;;;;;;5009301;28;20136;-75
2022/08/17 05:45:19;;;;;;;6.28;4.82;;;;;;;;;;5026844;28;20053;-74
2022/08/17 05:47:45;;;;;;;8.57;5.65;;;;;;;;;;5024670;28;20037;-72
2022/08/17 05:50:16;;;;;;;6.97;5.75;;;;;;;;;;5027270;28;20087;-77
2022/08/17 05:52:44;;;;;;;6.60;5.60;;;;;;;;;;5024005;28;20037;-73
2022/08/17 05:55:15;;;;;;;7.60;5.30;;;;;;;;;;5023003;28;20056;-72
2022/08/17 05:57:47;;;;;;;5.68;4.93;;;;;;;;;;5024700;28;20075;-75
2022/08/17 06:00:18;;;;;;;4.82;4.38;;;;;;;;;;5022584;28;20029;-72
2022/08/17 06:02:57;;;;;;;5.28;4.78;;;;;;;;;;5026124;28;20036;-75
2022/08/17 06:05:25;;;;;;;5.00;4.60;;;;;;;;;;5024346;28;20440;-75
2022/08/17 06:08:09;;;;;;;5.60;4.85;;;;;;;;;;5024011;28;20021;-73
2022/08/17 06:10:34;;;;;;;5.47;4.97;;;;;;;;;;5024903;28;20088;-76
2022/08/17 06:13:00;;;;;;;9.88;5.40;;;;;;;;;;5024499;28;20187;-73
2022/08/17 06:15:25;;;;;;;8.38;4.80;;;;;;;;;;5024356;28;20037;-72
2022/08/17 06:17:52;;;;;;;4.88;4.40;;;;;;;;;;5026695;28;20036;-75
2022/08/17 06:20:18;;;;;;;5.97;4.70;;;;;;;;;;5024212;28;20454;-72
2022/08/17 06:22:50;;;;;;;5.35;4.30;;;;;;;;;;5024613;28;20057;-73
2022/08/17 06:25:25;;;;;;;5.78;4.35;;;;;;;;;;5026341;28;20021;-72
2022/08/17 06:27:54;;;;;;;4.78;4.38;;;;;;;;;;5025492;28;20034;-72
2022/08/17 06:30:19;;;;;;;;;;;;;;;;;;5024574;28;20025;-77
2022/08/17 06:32:46;;;;;;;7.97;5.30;;;;;;;;;;5026050;28;20358;-72
2022/08/17 06:35:13;;;;;;;4.75;4.35;;;;;;;;;;5024874;28;20041;-72
2022/08/17 06:37:47;;;;;;;9.05;4.70;;;;;;;;;;5023605;28;20045;-76
2022/08/17 06:40:31;;;;;;;11.15;5.18;;;;;;;;;;5024172;28;20025;-76
2022/08/17 06:42:57;;;;;;;7.05;5.03;;;;;;;;;;5024289;28;20484;-72
2022/08/17 06:45:29;;;;;;;4.82;4.32;;;;;;;;;;5024903;28;20105;-73
2022/08/17 06:48:03;;;;;;;7.80;5.05;;;;;;;;;;5024807;28;20079;-75
2022/08/17 06:50:41;;;;;;;7.20;4.88;;;;;;;;;;5025348;28;20393;-73
2022/08/17 06:53:12;;;;;;;5.68;4.68;;;;;;;;;;5023026;28;20029;-72
2022/08/17 06:55:45;;;;;;;4.65;4.20;;;;;;;;;;5024794;28;20109;-74
2022/08/17 06:58:12;;;;;;;5.63;4.93;;;;;;;;;;5023981;28;20725;-73
2022/08/17 07:00:40;;;;;;;7.10;4.35;;;;;;;;;;5025452;28;20416;-74
2022/08/17 07:03:24;;;;;;;8.98;5.57;;;;;;;;;;5025723;28;20033;-75
2022/08/17 07:05:51;;;;;;;5.38;4.13;;;;;;;;;;5025582;28;20104;-73
2022/08/17 07:08:17;;;;;;;7.90;4.78;;;;;;;;;;5024319;28;20135;-73
2022/08/17 07:10:53;;;;;;;4.53;3.65;;;;;;;;;;5023801;28;20437;-74
2022/08/17 07:13:37;;;;;;;6.13;3.97;;;;;;;;;;5024031;28;20021;-72
2022/08/17 07:16:08;;;;;;;5.78;3.65;;;;;;;;;;5024508;28;20064;-74
2022/08/17 07:18:34;;;;;;;5.68;3.85;;;;;;;;;;5025682;28;20440;-75
2022/08/17 07:21:04;;;;;;;5.68;4.10;;;;;;;;;;5027627;28;20065;-75
2022/08/17 07:23:38;;;;;;;6.90;4.25;;;;;;;;;;5024713;28;20061;-73
2022/08/17 07:26:07;;;;;;;5.35;4.03;;;;;;;;;;5023667;28;20624;-74
2022/08/17 07:28:34;;;;;;;5.47;4.53;;;;;;;;;;5022633;28;20396;-73
2022/08/17 07:30:59;;;;;;;4.63;4.22;;;;;;;;;;5023180;28;20563;-72
2022/08/17 07:33:31;;;;;;;7.43;4.80;;;;;;;;;;5022913;28;20033;-77
2022/08/17 07:35:56;;;;;;;6.15;3.97;;;;;;;;;;5006370;28;20029;-72
2022/08/17 07:38:29;;;;;;;4.53;3.35;;;;;;;;;;5024028;28;20028;-72
2022/08/17 07:41:01;;;;;;;6.18;3.92;;;;;;;;;;5023877;28;20077;-73
2022/08/17 07:43:35;;;;;;;7.57;4.63;;;;;;;;;;5023923;28;20087;-74
2022/08/17 07:48:55;;;;;;;4.75;3.95;;;;;;;;;;5022717;28;20040;-73
2022/08/17 07:51:25;;;;;;;5.03;4.32;;;;;;;;;;5023949;28;20023;-73
2022/08/17 07:53:52;;;;;;;6.43;4.18;;;;;;;;;;5024575;28;20017;-75
2022/08/17 07:56:53;;;;;;;6.45;4.38;;;;;;;;;;5023570;28;20037;-76
2022/08/17 07:59:23;;;;;;;5.93;4.85;;;;;;;;;;5016267;28;20033;-74
2022/08/17 08:02:01;;;;;;;4.72;4.22;;;;;;;;;;5023452;28;20025;-76
2022/08/17 08:04:41;;;;;;;4.10;3.70;;;;;;;;;;5025526;28;20033;-73
2022/08/17 08:07:28;;;;;;;4.88;4.03;;;;;;;;;;5023573;28;20104;-72
2022/08/17 08:10:03;;;;;;;4.30;3.90;;;;;;;;;;5024464;28;20025;-72
2022/08/17 08:12:28;;;;;;;5.75;3.60;;;;;;;;;;5023498;28;20025;-74
2022/08/17 08:14:58;;;;;;;6.55;3.58;;;;;;;;;;5005958;28;20848;-75
2022/08/17 08:17:26;;;;;;;6.25;4.28;;;;;;;;;;5023028;28;20088;-75
2022/08/17 08:19:51;;;;;;;5.30;4.05;;;;;;;;;;5024259;28;20280;-73
2022/08/17 08:22:26;;;;;;;4.85;3.53;;;;;;;;;;5021690;28;20402;-73
2022/08/17 08:24:59;;;;;;;3.90;3.53;;;;;;;;;;5023863;28;20025;-73
2022/08/17 08:28:00;;;;;;;5.50;4.07;;;;;;;;;;5023736;28;20032;-73
2022/08/17 08:30:27;;;;;;;4.60;3.85;;;;;;;;;;5004125;28;20036;-74
2022/08/17 08:32:52;;;;;;;5.07;4.15;;;;;;;;;;5023646;28;20499;-73
2022/08/17 08:35:28;;;;;;;7.82;4.20;;;;;;;;;;5022377;28;20033;-72
2022/08/17 08:37:59;;;;;;;4.60;4.20;;;;;;;;;;5023035;28;20401;-75
2022/08/17 08:40:31;;;;;;;5.63;3.92;;;;;;;;;;5023079;28;20176;-73
2022/08/17 08:43:15;;;;;;;3.53;3.22;;;;;;;;;;5003186;28;20041;-74
2022/08/17 08:45:43;;;;;;;5.28;3.58;;;;;;;;;;5002300;28;20037;-77
2022/08/17 08:48:08;;;;;;;3.93;3.47;;;;;;;;;;5002469;28;20022;-77
2022/08/17 08:50:47;;;;;;;6.45;3.63;;;;;;;;;;5003487;28;20033;-73
2022/08/17 08:53:24;;;;;;;3.30;3.10;;;;;;;;;;5003371;28;20033;-74
2022/08/17 08:55:52;;;;;;;5.25;3.67;;;;;;;;;;5005035;28;20038;-75
2022/08/17 08:58:28;;;;;;;3.97;3.00;;;;;;;;;;5008865;28;20030;-75
2022/08/17 09:00:55;;;;;;;5.63;3.45;;;;;;;;;;5009073;28;20255;-74
2022/08/17 09:03:38;;;;;;;3.50;3.20;;;;;;;;;;5009151;28;20041;-78
2022/08/17 09:06:10;;;;;;;4.97;3.50;;;;;;;;;;5010635;28;20415;-75
2022/08/17 09:08:44;;;;;;;4.30;3.08;;;;;;;;;;5009201;28;20033;-74
2022/08/17 09:11:16;;;;;;;5.70;4.13;;;;;;;;;;5010112;28;20030;-73
2022/08/17 09:13:41;;;;;;;4.15;3.78;;;;;;;;;;5011235;28;20045;-73
2022/08/17 09:16:32;;;;;;;4.05;3.65;;;;;;;;;;5010110;28;20353;-75
2022/08/17 09:19:18;;;;;;;3.75;3.40;;;;;;;;;;5009080;28;20022;-74
2022/08/17 09:21:51;;;;;;;5.10;3.00;;;;;;;;;;5011871;28;20030;-73
2022/08/17 09:24:35;;;;;;;4.55;3.25;;;;;;;;;;5011414;28;20022;-75
2022/08/17 09:27:09;;;;;;;3.78;3.28;;;;;;;;;;5009331;28;20041;-75
2022/08/17 09:29:37;;;;;;;3.38;3.08;;;;;;;;;;5009722;28;20058;-75
2022/08/17 09:32:08;;;;;;;6.30;3.75;;;;;;;;;;5011434;28;20034;-74
2022/08/17 09:34:46;;;;;;;3.00;2.80;;;;;;;;;;5009641;28;20048;-73
2022/08/17 09:37:30;;;;;;;5.45;3.38;;;;;;;;;;5009394;28;20033;-73
2022/08/17 09:40:08;;;;;;;5.72;3.50;;;;;;;;;;5010489;28;20388;-74
2022/08/17 09:42:45;;;;;;;3.05;2.80;;;;;;;;;;5025657;28;20053;-77
2022/08/17 09:45:29;;;;;;;2.67;2.47;;;;;;;;;;5028661;28;20029;-75
2022/08/17 09:47:58;;;;;;;3.42;3.10;;;;;;;;;;5027732;28;20034;-73
2022/08/17 09:50:23;;;;;;;;;;;;;;;;;;5029228;28;20703;-73
2022/08/17 09:52:56;;;;;;;3.10;2.80;;;;;;;;;;5028896;28;19927;-75
2022/08/17 09:55:25;;;;;;;3.80;2.80;;;;;;;;;;5031096;28;20061;-75
2022/08/17 09:58:03;;;;;;;3.17;2.55;;;;;;;;;;5028726;28;20021;-75
2022/08/17 10:00:38;;;;;;;3.35;3.05;;;;;;;;;;5029116;28;20041;-76
2022/08/17 10:03:03;;;;;;;5.55;3.63;;;;;;;;;;5029718;28;20091;-75
2022/08/17 10:05:50;;;;;;;3.00;2.70;;;;;;;;;;5028520;28;20025;-75
2022/08/17 10:08:21;;;;;;;3.85;3.15;;;;;;;;;;5014281;28;20045;-75
2022/08/17 10:11:05;;;;;;;3.45;3.10;;;;;;;;;;5025672;28;20029;-73
2022/08/17 10:13:54;;;;;;;3.40;2.88;;;;;;;;;;5025865;28;20448;-75
2022/08/17 10:16:20;;;;;;;3.53;2.70;;;;;;;;;;5026053;28;20105;-74
2022/08/17 10:18:51;;;;;;;4.07;3.20;;;;;;;;;;5026860;28;20033;-75
2022/08/17 10:26:49;;;;;;;3.42;2.75;;;;;;;;;;5024414;28;20045;-76
2022/08/17 10:29:19;;;;;;;3.63;3.33;;;;;;;;;;5024780;28;20044;-73
2022/08/17 10:31:47;;;;;;;3.28;2.97;;;;;;;;;;5024964;28;20341;-76
2022/08/17 10:34:24;;;;;;;3.42;3.20;;;;;;;;;;5026786;28;21103;-74
2022/08/17 10:37:05;;;;;;;3.60;3.20;;;;;;;;;;5027268;28;20334;-74
2022/08/17 10:39:34;;;;;;;3.47;2.90;;;;;;;;;;5026222;28;20094;-73
2022/08/17 10:42:03;;;;;;;4.57;2.90;;;;;;;;;;5024436;28;20045;-73
2022/08/17 10:44:38;;;;;;;5.18;3.85;;;;;;;;;;5026946;28;20073;-74
2022/08/17 10:47:14;;;;;;;3.63;2.70;;;;;;;;;;5024140;28;20033;-74
2022/08/17 10:49:48;;;;;;;3.33;3.03;;;;;;;;;;5024964;28;20025;-76
2022/08/17 10:52:19;;;;;;;3.72;3.42;;;;;;;;;;5025339;28;20056;-79
2022/08/17 10:54:45;;;;;;;3.28;2.97;;;;;;;;;;5025340;28;20044;-75
2022/08/17 10:57:30;;;;;;;15.55;4.30;;;;;;;;;;5026102;28;20021;-74
2022/08/17 11:00:09;;;;;;;4.68;3.40;;;;;;;;;;5025480;28;20033;-76
2022/08/17 11:02:40;;;;;;;3.55;3.25;;;;;;;;;;5025465;28;20372;-74
2022/08/17 11:05:10;;;;;;;3.00;2.78;;;;;;;;;;5023761;28;20043;-75
2022/08/17 11:07:47;;;;;;;2.97;2.67;;;;;;;;;;5025840;28;20039;-74
2022/08/17 11:10:33;;;;;;;3.13;2.83;;;;;;;;;;5026578;28;20083;-75
2022/08/17 11:13:17;;;;;;;3.40;2.50;;;;;;;;;;5002166;28;20057;-74
2022/08/17 11:16:18;;;;;;;4.03;3.17;;;;;;;;;;5025445;28;20112;-74
2022/08/17 11:18:46;;;;;;;2.90;2.50;;;;;;;;;;4980951;28;20029;-75
2022/08/17 11:21:19;;;;;;;2.97;2.67;;;;;;;;;;5026187;28;20029;-75
2022/08/17 11:23:50;;;;;;;3.58;2.80;;;;;;;;;;5024802;28;20123;-75
2022/08/17 11:26:24;;;;;;;6.28;2.97;;;;;;;;;;5024431;28;20029;-75
2022/08/17 11:28:53;;;;;;;2.60;2.13;;;;;;;;;;5023480;28;20520;-75
2022/08/17 11:31:27;;;;;;;2.25;2.00;;;;;;;;;;5026092;28;20029;-74
2022/08/17 11:33:55;;;;;;;5.63;2.83;;;;;;;;;;5023838;28;20071;-73
2022/08/17 11:36:20;;;;;;;3.80;3.20;;;;;;;;;;5024454;28;20419;-75
2022/08/17 11:39:00;;;;;;;3.72;2.88;;;;;;;;;;5025358;28;20025;-75
2022/08/17 11:41:26;;;;;;;5.72;2.97;;;;;;;;;;5024242;28;20050;-74
2022/08/17 11:44:00;;;;;;;2.55;2.13;;;;;;;;;;5024984;28;20447;-74
2022/08/17 11:52:41;;;;;;;26.00;6.25;;;;;;;;;;5024784;28;20106;-74
2022/08/17 11:55:08;;;;;;;6.72;3.08;;;;;;;;;;5026084;28;20076;-74
2022/08/17 11:57:40;;;;;;;8.00;4.00;;;;;;;;;;5006337;28;20037;-75
2022/08/17 12:00:10;;;;;;;3.15;2.80;;;;;;;;;;5022338;28;20036;-75
2022/08/17 12:02:42;;;;;;;5.32;3.00;;;;;;;;;;5023569;28;20021;-75
2022/08/17 12:05:13;;;;;;;3.17;2.88;;;;;;;;;;5024655;28;20035;-75
2022/08/17 12:07:57;;;;;;;5.13;2.80;;;;;;;;;;5023210;28;20036;-76
2022/08/17 12:10:30;;;;;;;6.95;2.85;;;;;;;;;;5025277;28;20088;-76
2022/08/17 12:12:56;;;;;;;3.38;2.78;;;;;;;;;;5024713;28;20033;-74
2022/08/17 12:15:27;;;;;;;3.28;2.72;;;;;;;;;;5021808;28;20033;-76
2022/08/17 12:17:54;;;;;;;3.13;2.70;;;;;;;;;;5024908;28;20571;-76
2022/08/17 12:20:39;;;;;;;3.58;3.13;;;;;;;;;;5023796;28;20061;-75
2022/08/17 12:23:11;;;;;;;3.65;2.75;;;;;;;;;;5023834;28;20124;-74
2022/08/17 12:25:42;;;;;;;3.83;2.60;;;;;;;;;;5022374;28;20041;-75
2022/08/17 12:28:25;;;;;;;3.90;2.92;;;;;;;;;;5022716;28;20524;-75
2022/08/17 12:30:51;;;;;;;4.30;2.88;;;;;;;;;;5022862;28;20025;-75
2022/08/17 12:33:18;;;;;;;3.40;2.50;;;;;;;;;;5022525;28;20028;-76
2022/08/17 12:35:45;;;;;;;3.35;2.58;;;;;;;;;;5020655;28;20436;-74
2022/08/17 12:38:14;;;;;;;5.47;3.13;;;;;;;;;;5023903;28;20032;-76
2022/08/17 12:40:51;;;;;;;3.75;3.00;;;;;;;;;;5026169;28;20450;-78
2022/08/17 12:43:20;;;;;;;4.10;2.45;;;;;;;;;;5023282;28;20392;-77
2022/08/17 12:45:55;;;;;;;4.10;2.67;;;;;;;;;;5020434;28;20029;-75
2022/08/17 12:48:22;;;;;;;2.72;2.50;;;;;;;;;;5022768;28;20624;-75
2022/08/17 12:50:48;;;;;;;6.47;2.88;;;;;;;;;;5022845;28;20417;-74
2022/08/17 12:53:14;;;;;;;3.10;2.50;;;;;;;;;;5024456;28;20039;-75
2022/08/17 12:55:41;;;;;;;3.00;2.38;;;;;;;;;;5023037;28;20036;-75
2022/08/17 12:58:11;;;;;;;5.47;2.47;;;;;;;;;;5025021;28;20094;-74
2022/08/17 13:00:39;;;;;;;2.78;2.35;;;;;;;;;;5021951;28;20100;-75
2022/08/17 13:03:19;;;;;;;7.15;2.65;;;;;;;;;;5023136;28;20103;-77
2022/08/17 13:05:53;;;;;;;6.57;2.80;;;;;;;;;;5022789;28;20030;-74
2022/08/17 13:08:22;;;;;;;4.82;2.75;;;;;;;;;;5020943;28;20029;-75
2022/08/17 13:10:47;;;;;;;;;;;;;;;;;;5021713;28;20461;-75
2022/08/17 13:13:20;;;;;;;3.47;3.17;;;;;;;;;;5023004;28;19924;-74
2022/08/17 13:16:08;;;;;;;4.35;2.50;;;;;;;;;;5021716;28;20079;-76
2022/08/17 13:18:42;;;;;;;3.60;2.40;;;;;;;;;;5022754;28;20025;-76
2022/08/17 13:21:25;;;;;;;4.25;2.60;;;;;;;;;;5022254;28;20072;-76
2022/08/17 13:24:20;;;;;;;3.47;2.42;;;;;;;;;;5022330;28;20033;-75
2022/08/17 13:26:47;;;;;;;4.13;2.30;;;;;;;;;;4961446;28;20045;-75
2022/08/17 13:29:27;;;;;;;3.95;3.03;;;;;;;;;;4962917;28;20038;-76
2022/08/17 13:31:54;;;;;;;4.35;2.67;;;;;;;;;;4961103;28;20051;-76
2022/08/17 13:34:28;;;;;;;3.35;2.72;;;;;;;;;;4961813;28;20093;-75
2022/08/17 13:37:12;;;;;;;3.40;2.60;;;;;;;;;;4959968;28;20141;-74
2022/08/17 13:39:41;;;;;;;6.20;2.92;;;;;;;;;;4961556;28;20446;-75
2022/08/17 13:42:25;;;;;;;3.92;2.80;;;;;;;;;;4960832;28;20109;-75
2022/08/17 13:44:51;;;;;;;6.30;2.70;;;;;;;;;;4966084;28;20042;-74
2022/08/17 13:47:17;;;;;;;5.85;2.53;;;;;;;;;;4966177;28;20038;-75
2022/08/17 13:49:43;;;;;;;2.38;1.98;;;;;;;;;;4964875;28;20039;-74
2022/08/17 13:52:31;;;;;;;3.92;2.80;;;;;;;;;;4965287;28;20457;-74
2022/08/17 13:54:56;;;;;;;;;;;;;;;;;;4956631;28;20488;-73
2022/08/17 13:57:23;;;;;;;3.87;2.60;;;;;;;;;;4966165;28;20004;-76
2022/08/17 13:59:49;;;;;;;4.45;2.78;;;;;;;;;;4966523;28;20026;-76
2022/08/17 14:02:16;;;;;;;3.70;2.88;;;;;;;;;;4972030;28;20073;-76
2022/08/17 14:04:42;;;;;;;3.38;2.63;;;;;;;;;;5026157;28;20025;-77
2022/08/17 14:07:07;;;;;;;2.50;2.30;;;;;;;;;;5025617;28;20501;-74
2022/08/17 14:09:42;;;;;;;3.07;2.40;;;;;;;;;;5026424;28;20472;-75
2022/08/17 14:12:11;;;;;;;7.68;2.38;;;;;;;;;;5024276;28;20717;-76
2022/08/17 14:14:37;;;;;;;5.93;2.63;;;;;;;;;;5025838;28;20026;-75
2022/08/17 14:17:02;;;;;;;2.67;2.47;;;;;;;;;;5026531;28;20035;-75
2022/08/17 14:19:28;;;;;;;2.88;2.38;;;;;;;;;;5025100;28;20025;-75
2022/08/17 14:21:57;;;;;;;4.68;2.80;;;;;;;;;;5026347;28;20344;-76
2022/08/17 14:24:29;;;;;;;5.25;2.58;;;;;;;;;;5026753;28;20039;-75
2022/08/17 14:26:56;;;;;;;2.80;2.35;;;;;;;;;;5025842;28;20026;-76
2022/08/17 14:29:22;;;;;;;2.65;2.45;;;;;;;;;;5025529;28;20155;-77
2022/08/17 14:31:48;;;;;;;3.47;2.90;;;;;;;;;;5025580;28;20455;-74
2022/08/17 14:34:14;;;;;;;2.75;2.33;;;;;;;;;;5025043;28;20031;-76
2022/08/17 14:36:42;;;;;;;2.78;2.30;;;;;;;;;;5026175;28;20025;-75
2022/08/17 14:39:11;;;;;;;3.15;2.10;;;;;;;;;;5023813;28;20036;-77
2022/08/17 14:41:37;;;;;;;4.03;2.45;;;;;;;;;;5026161;28;20067;-75
2022/08/17 14:44:03;;;;;;;4.38;2.50;;;;;;;;;;5025767;28;20405;-76
2022/08/17 14:46:30;;;;;;;3.28;2.22;;;;;;;;;;5025536;28;20392;-75
2022/08/17 14:48:56;;;;;;;2.53;2.13;;;;;;;;;;5026114;28;20075;-76
2022/08/17 14:51:22;;;;;;;2.58;2.33;;;;;;;;;;5026552;28;20440;-77
2022/08/17 14:53:47;;;;;;;2.60;2.13;;;;;;;;;;5025086;28;20472;-74
2022/08/17 14:56:13;;;;;;;2.72;2.33;;;;;;;;;;5026387;28;20210;-74
2022/08/17 14:58:41;;;;;;;3.83;2.85;;;;;;;;;;5025959;28;20094;-76
2022/08/17 15:01:07;;;;;;;3.00;2.50;;;;;;;;;;5028712;28;20051;-75
2022/08/17 15:03:33;;;;;;;3.08;2.10;;;;;;;;;;5025441;28;20087;-74
2022/08/17 15:05:58;;;;;;;5.95;3.03;;;;;;;;;;5023962;28;20585;-77
2022/08/17 15:08:23;;;;;;;2.72;2.45;;;;;;;;;;5025413;28;20057;-75
2022/08/17 15:10:49;;;;;;;2.38;2.20;;;;;;;;;;5025040;28;20029;-74
2022/08/17 15:13:19;;;;;;;2.60;2.40;;;;;;;;;;5023759;28;20061;-75
2022/08/17 15:15:45;;;;;;;2.30;2.10;;;;;;;;;;5023790;28;20106;-75
2022/08/17 15:18:11;;;;;;;2.65;2.45;;;;;;;;;;5024929;28;20062;-74
2022/08/17 15:20:36;;;;;;;6.00;2.65;;;;;;;;;;5006269;28;20056;-75
2022/08/17 15:23:01;;;;;;;3.92;2.50;;;;;;;;;;5026575;28;20041;-75
2022/08/17 15:25:29;;;;;;;4.22;2.60;;;;;;;;;;5024887;28;20036;-76
2022/08/17 15:27:54;;;;;;;2.70;2.42;;;;;;;;;;5025027;28;20025;-75